createdAt,value
2022-11-20T00:02:12.532Z,67.08
2022-11-20T00:05:15.808Z,67.00
2022-11-20T00:08:18.355Z,67.34
2022-11-20T00:11:23.450Z,67.24
2022-11-20T00:14:26.048Z,67.36
2022-11-20T00:17:29.175Z,67.58
2022-11-20T00:20:31.741Z,67.91
2022-11-20T00:23:35.240Z,68.25
2022-11-20T00:26:38.113Z,67.36
2022-11-20T00:29:41.101Z,67.15
2022-11-20T00:32:43.451Z,67.89
2022-11-20T00:35:46.533Z,67.98
2022-11-20T00:38:56.520Z,68.20
2022-11-20T00:41:59.796Z,67.75
2022-11-20T00:45:02.338Z,67.61
2022-11-20T00:48:05.696Z,67.10
2022-11-20T00:51:08.255Z,67.12
2022-11-20T00:54:11.371Z,66.36
2022-11-20T00:57:13.942Z,67.02
2022-11-20T01:00:17.140Z,67.55
2022-11-20T01:03:24.236Z,67.32
2022-11-20T01:06:38.482Z,67.38
2022-11-20T01:09:40.962Z,67.98
2022-11-20T01:12:44.233Z,68.39
2022-11-20T01:15:46.787Z,68.24
2022-11-20T01:18:53.059Z,68.47
2022-11-20T01:21:55.631Z,69.08
2022-11-20T01:24:58.677Z,69.51
2022-11-20T01:28:01.163Z,69.75
2022-11-20T01:31:19.432Z,70.35
2022-11-20T01:34:23.383Z,70.80
2022-11-20T01:37:26.501Z,71.11
2022-11-20T01:40:28.946Z,71.13
2022-11-20T01:43:32.027Z,71.38
2022-11-20T01:46:37.898Z,71.79
2022-11-20T01:49:51.584Z,71.77
2022-11-20T01:53:00.330Z,71.81
2022-11-20T01:56:08.556Z,72.08
2022-11-20T01:59:14.327Z,72.46
2022-11-20T02:02:17.425Z,72.40
2022-11-20T02:05:43.087Z,72.18
2022-11-20T02:08:45.793Z,73.05
2022-11-20T02:11:48.631Z,73.03
2022-11-20T02:14:51.444Z,73.24
2022-11-20T02:17:54.941Z,72.99
2022-11-20T02:21:07.482Z,72.97
2022-11-20T02:24:18.126Z,72.97
2022-11-20T02:27:22.011Z,72.56
2022-11-20T02:30:25.112Z,72.43
2022-11-20T02:33:27.985Z,72.67
2022-11-20T02:36:33.141Z,73.02
2022-11-20T02:39:35.879Z,72.80
2022-11-20T02:42:38.758Z,72.42
2022-11-20T02:45:41.583Z,72.68
2022-11-20T02:48:44.347Z,72.54
2022-11-20T02:51:47.086Z,72.21
2022-11-20T02:54:49.905Z,72.47
2022-11-20T02:57:52.692Z,73.11
2022-11-20T03:00:55.559Z,72.32
2022-11-20T03:03:59.562Z,72.20
2022-11-20T03:07:02.447Z,72.28
2022-11-20T03:10:06.211Z,72.23
2022-11-20T03:13:09.007Z,71.96
2022-11-20T03:16:14.481Z,71.60
2022-11-20T03:19:19.678Z,71.37
2022-11-20T03:22:22.595Z,71.37
2022-11-20T03:25:25.361Z,71.55
2022-11-20T03:28:28.140Z,72.20
2022-11-20T03:31:38.923Z,71.33
2022-11-20T03:34:41.831Z,70.71
2022-11-20T03:37:44.746Z,71.58
2022-11-20T03:40:47.532Z,71.80
2022-11-20T03:43:50.995Z,70.39
2022-11-20T03:46:53.773Z,70.54
2022-11-20T03:49:56.563Z,70.67
2022-11-20T03:52:59.330Z,70.31
2022-11-20T03:56:02.184Z,70.52
2022-11-20T03:59:05.414Z,70.36
2022-11-20T04:02:08.470Z,69.66
2022-11-20T04:05:11.481Z,69.85
2022-11-20T04:08:14.048Z,69.92
2022-11-20T04:11:27.514Z,70.30
2022-11-20T04:14:30.039Z,70.62
2022-11-20T04:17:33.091Z,69.33
2022-11-20T04:20:36.466Z,69.77
2022-11-20T04:23:40.127Z,69.87
2022-11-20T04:26:42.790Z,69.96
2022-11-20T04:29:45.831Z,69.07
2022-11-20T04:32:48.285Z,69.61
2022-11-20T04:35:51.341Z,70.05
2022-11-20T04:38:57.362Z,70.34
2022-11-20T04:42:19.190Z,70.87
2022-11-20T04:45:22.999Z,70.80
2022-11-20T04:48:28.034Z,71.07
2022-11-20T04:51:30.570Z,71.14
2022-11-20T04:54:33.691Z,71.01
2022-11-20T04:57:36.182Z,70.83
2022-11-20T05:00:39.344Z,70.66
2022-11-20T05:03:43.605Z,70.55
2022-11-20T05:06:46.708Z,70.27
2022-11-20T05:09:49.186Z,70.47
2022-11-20T05:12:52.612Z,70.78
2022-11-20T05:15:55.099Z,70.71
2022-11-20T05:18:58.432Z,70.53
2022-11-20T05:22:00.943Z,70.70
2022-11-20T05:25:04.170Z,70.26
2022-11-20T05:28:06.836Z,70.89
2022-11-20T05:31:15.831Z,71.34
2022-11-20T05:34:18.270Z,70.53
2022-11-20T05:37:21.462Z,71.16
2022-11-20T05:40:23.975Z,71.33
2022-11-20T05:43:27.180Z,71.07
2022-11-20T05:46:29.918Z,70.95
2022-11-20T05:49:33.452Z,71.87
2022-11-20T05:52:35.928Z,72.32
2022-11-20T05:55:38.977Z,72.45
2022-11-20T05:58:41.792Z,71.19
2022-11-20T06:01:44.859Z,70.85
2022-11-20T06:04:47.677Z,70.92
2022-11-20T06:07:50.527Z,70.32
2022-11-20T06:10:53.355Z,70.35
2022-11-20T06:13:56.357Z,70.46
2022-11-20T06:16:59.347Z,69.66
2022-11-20T06:20:02.536Z,70.02
2022-11-20T06:23:05.283Z,70.27
2022-11-20T06:26:13.437Z,70.11
2022-11-20T06:29:16.271Z,70.11
2022-11-20T06:32:19.061Z,69.66
2022-11-20T06:35:22.015Z,69.17
2022-11-20T06:38:28.772Z,69.45
2022-11-20T06:41:31.568Z,68.88
2022-11-20T06:44:34.469Z,68.91
2022-11-20T06:47:37.458Z,68.58
2022-11-20T06:50:40.328Z,68.54
2022-11-20T06:53:43.094Z,68.77
2022-11-20T06:56:49.173Z,68.24
2022-11-20T06:59:51.970Z,67.93
2022-11-20T07:02:54.963Z,68.10
2022-11-20T07:06:00.954Z,67.30
2022-11-20T07:09:06.365Z,67.04
2022-11-20T07:12:11.356Z,66.70
2022-11-20T07:15:14.156Z,66.81
2022-11-20T07:18:16.960Z,66.85
2022-11-20T07:21:19.769Z,67.65
2022-11-20T07:24:22.580Z,68.16
2022-11-20T07:27:25.380Z,67.11
2022-11-20T07:30:31.359Z,68.09
2022-11-20T07:33:34.163Z,68.82
2022-11-20T07:36:37.007Z,69.08
2022-11-20T07:39:39.876Z,69.77
2022-11-20T07:42:56.667Z,71.89
2022-11-20T07:46:00.236Z,71.74
2022-11-20T07:49:02.891Z,70.79
2022-11-20T07:52:05.619Z,70.64
2022-11-20T07:55:09.694Z,71.39
2022-11-20T07:58:12.616Z,71.39
2022-11-20T08:01:15.582Z,70.92
2022-11-20T08:04:18.699Z,70.73
2022-11-20T08:07:22.007Z,71.03
2022-11-20T08:10:26.691Z,70.95
2022-11-20T08:13:48.001Z,70.87
2022-11-20T08:16:51.150Z,70.60
2022-11-20T08:19:53.612Z,70.53
2022-11-20T08:23:06.615Z,70.14
2022-11-20T08:26:09.417Z,70.09
2022-11-20T08:29:12.495Z,70.17
2022-11-20T08:32:15.094Z,70.20
2022-11-20T08:35:18.341Z,70.17
2022-11-20T08:38:20.839Z,70.01
2022-11-20T08:41:29.556Z,69.96
2022-11-20T08:44:32.014Z,70.10
2022-11-20T08:47:35.047Z,69.86
2022-11-20T08:50:37.565Z,69.89
2022-11-20T08:53:41.370Z,70.09
2022-11-20T08:56:43.902Z,70.02
2022-11-20T09:03:09.785Z,69.99
2022-11-20T09:06:13.230Z,70.34
2022-11-20T09:09:15.627Z,69.60
2022-11-20T09:12:18.691Z,69.65
2022-11-20T09:15:21.133Z,69.09
2022-11-20T09:18:24.905Z,69.91
2022-11-20T09:21:27.496Z,70.44
2022-11-20T09:24:30.982Z,71.08
2022-11-20T09:27:33.643Z,70.85
2022-11-20T09:30:37.026Z,69.73
2022-11-20T09:33:39.558Z,69.24
2022-11-20T09:36:42.596Z,69.01
2022-11-20T09:39:45.068Z,67.90
2022-11-20T09:42:59.735Z,68.38
2022-11-20T09:46:23.816Z,68.58
2022-11-20T09:49:37.847Z,67.44
2022-11-20T09:52:57.782Z,67.40
2022-11-20T09:56:03.547Z,66.90
2022-11-20T09:59:08.689Z,66.30
2022-11-20T10:02:24.123Z,66.57
2022-11-20T10:05:32.454Z,66.91
2022-11-20T10:09:05.783Z,66.34
2022-11-20T10:12:20.555Z,65.81
2022-11-20T10:15:55.811Z,66.13
2022-11-20T10:19:39.615Z,65.50
2022-11-20T10:23:22.741Z,64.48
2022-11-20T10:26:59.428Z,64.02
2022-11-20T10:30:14.811Z,62.51
2022-11-20T10:33:22.665Z,62.60
2022-11-20T10:36:32.034Z,61.44
2022-11-20T10:39:40.959Z,60.46
2022-11-20T10:42:48.369Z,58.83
2022-11-20T10:45:58.414Z,59.20
2022-11-20T10:49:01.230Z,57.43
2022-11-20T10:52:22.198Z,56.35
2022-11-20T10:55:38.920Z,53.09
2022-11-20T10:58:51.781Z,51.15
2022-11-20T11:01:54.531Z,49.73
2022-11-20T11:04:58.647Z,49.42
2022-11-20T11:08:01.538Z,48.99
2022-11-20T11:11:11.372Z,49.45
2022-11-20T11:14:16.167Z,49.00
2022-11-20T11:17:31.628Z,51.01
2022-11-20T11:20:34.485Z,50.68
2022-11-20T11:23:40.654Z,50.78
2022-11-20T11:26:57.265Z,52.29
2022-11-20T11:30:15.271Z,52.82
2022-11-20T11:33:30.078Z,52.79
2022-11-20T11:36:34.500Z,53.55
2022-11-20T11:39:42.243Z,53.34
2022-11-20T11:42:51.327Z,53.28
2022-11-20T11:45:56.236Z,54.28
2022-11-20T11:49:04.746Z,53.70
2022-11-20T11:52:17.258Z,53.10
2022-11-20T11:55:29.871Z,53.81
2022-11-20T11:58:56.504Z,54.74
2022-11-20T12:02:05.283Z,54.32
2022-11-20T12:05:18.939Z,54.51
2022-11-20T12:08:26.069Z,54.17
2022-11-20T12:11:52.174Z,54.56
2022-11-20T12:14:57.181Z,53.79
2022-11-20T12:18:00.968Z,53.88
2022-11-20T12:21:21.342Z,54.19
2022-11-20T12:24:56.399Z,54.08
2022-11-20T12:28:10.996Z,54.33
2022-11-20T12:31:26.349Z,54.84
2022-11-20T12:34:50.913Z,56.30
2022-11-20T12:38:27.984Z,56.48
2022-11-20T12:42:01.672Z,56.32
2022-11-20T12:45:16.013Z,57.41
2022-11-20T12:48:34.588Z,57.86
2022-11-20T12:51:40.839Z,58.08
2022-11-20T12:55:15.774Z,58.12
2022-11-20T12:58:28.851Z,58.73
2022-11-20T13:01:48.733Z,59.18
2022-11-20T13:05:04.275Z,58.32
2022-11-20T13:08:23.518Z,58.86
2022-11-20T13:11:39.149Z,58.85
2022-11-20T13:15:02.264Z,58.94
2022-11-20T13:18:09.084Z,58.29
2022-11-20T13:21:24.377Z,59.03
2022-11-20T13:24:31.207Z,60.06
2022-11-20T13:27:33.739Z,60.49
2022-11-20T13:30:38.193Z,60.65
2022-11-20T13:33:40.712Z,60.43
2022-11-20T13:36:52.664Z,60.31
2022-11-20T13:40:08.954Z,60.14
2022-11-20T13:43:22.451Z,58.85
2022-11-20T13:46:44.922Z,59.55
2022-11-20T13:49:49.425Z,60.24
2022-11-20T13:52:58.176Z,60.56
2022-11-20T13:56:39.799Z,60.89
2022-11-20T13:59:58.288Z,61.06
2022-11-20T14:03:07.274Z,60.92
2022-11-20T14:06:27.011Z,61.74
2022-11-20T14:09:32.386Z,61.79
2022-11-20T14:12:35.397Z,62.15
2022-11-20T14:15:44.742Z,62.30
2022-11-20T14:18:47.783Z,62.23
2022-11-20T14:21:56.089Z,62.60
2022-11-20T14:25:28.092Z,63.39
2022-11-20T14:28:32.337Z,63.07
2022-11-20T14:31:35.177Z,63.37
2022-11-20T14:34:41.580Z,63.83
2022-11-20T14:37:44.507Z,63.61
2022-11-20T14:40:47.356Z,63.90
2022-11-20T14:43:58.069Z,64.17
2022-11-20T14:47:03.577Z,64.90
2022-11-20T14:50:17.134Z,65.19
2022-11-20T14:53:25.383Z,65.21
2022-11-20T14:56:28.273Z,64.66
2022-11-20T14:59:35.877Z,65.17
2022-11-20T15:02:47.251Z,65.80
2022-11-20T15:05:52.176Z,66.98
2022-11-20T15:08:55.267Z,67.04
2022-11-20T15:12:01.285Z,66.50
2022-11-20T15:15:06.201Z,66.81
2022-11-20T15:18:14.278Z,66.69
2022-11-20T15:21:20.061Z,66.85
2022-11-20T15:24:23.041Z,67.15
2022-11-20T15:27:26.245Z,67.32
2022-11-20T15:30:29.256Z,67.38
2022-11-20T15:33:32.914Z,67.67
2022-11-20T15:36:35.694Z,68.03
2022-11-20T15:39:38.729Z,68.38
2022-11-20T15:43:01.688Z,68.68
2022-11-20T15:46:10.189Z,68.80
2022-11-20T15:49:19.905Z,68.85
2022-11-20T15:52:23.099Z,69.19
2022-11-20T15:55:26.059Z,69.24
2022-11-20T15:58:28.989Z,69.48
2022-11-20T16:01:31.867Z,69.77
2022-11-20T16:04:34.691Z,70.00
2022-11-20T16:07:37.652Z,70.26
2022-11-20T16:10:43.999Z,70.23
2022-11-20T16:14:05.692Z,70.20
2022-11-20T16:17:08.609Z,70.44
2022-11-20T16:20:14.577Z,70.61
2022-11-20T16:23:18.210Z,69.72
2022-11-20T16:26:21.811Z,70.21
2022-11-20T16:29:24.485Z,70.42
2022-11-20T16:32:27.225Z,70.45
2022-11-20T16:35:31.855Z,70.60
2022-11-20T16:38:34.769Z,70.59
2022-11-20T16:41:37.656Z,70.85
2022-11-20T16:44:42.027Z,71.10
2022-11-20T16:47:44.976Z,71.51
2022-11-20T16:50:50.630Z,71.50
2022-11-20T16:53:57.874Z,70.73
2022-11-20T16:57:00.723Z,71.36
2022-11-20T17:00:04.322Z,71.64
2022-11-20T17:03:07.684Z,72.14
2022-11-20T17:06:21.040Z,72.14
2022-11-20T17:09:23.890Z,72.37
2022-11-20T17:12:26.648Z,72.55
2022-11-20T17:15:29.505Z,72.58
2022-11-20T17:18:32.550Z,72.63
2022-11-20T17:21:39.366Z,72.68
2022-11-20T17:24:42.481Z,72.96
2022-11-20T17:27:45.285Z,73.30
2022-11-20T17:30:48.338Z,73.19
2022-11-20T17:33:51.458Z,72.89
2022-11-20T17:36:55.549Z,73.01
2022-11-20T17:39:58.713Z,72.90
2022-11-20T17:43:01.725Z,73.16
2022-11-20T17:46:06.781Z,72.81
2022-11-20T17:49:09.786Z,73.12
2022-11-20T17:52:13.006Z,73.18
2022-11-20T17:55:16.154Z,73.26
2022-11-20T17:58:19.083Z,73.38
2022-11-20T18:01:22.707Z,73.52
2022-11-20T18:04:26.439Z,73.11
2022-11-20T18:07:29.421Z,73.45
2022-11-20T18:10:32.660Z,73.61
2022-11-20T18:13:55.188Z,73.44
2022-11-20T18:17:06.922Z,73.44
2022-11-20T18:23:34.143Z,73.88
2022-11-20T18:26:43.862Z,73.85
2022-11-20T18:29:48.814Z,74.18
2022-11-20T18:32:51.414Z,74.18
2022-11-20T18:35:54.657Z,74.54
2022-11-20T18:39:00.027Z,74.59
2022-11-20T18:42:21.920Z,74.89
2022-11-20T18:45:25.994Z,74.98
2022-11-20T18:48:32.120Z,74.82
2022-11-20T18:51:37.029Z,74.94
2022-11-20T18:54:41.063Z,75.12
2022-11-20T18:57:43.718Z,75.25
2022-11-20T19:00:46.830Z,75.47
2022-11-20T19:03:49.405Z,75.51
2022-11-20T19:06:56.350Z,75.65
2022-11-20T19:10:03.418Z,75.82
2022-11-20T19:13:07.270Z,75.96
2022-11-20T19:16:18.060Z,75.72
2022-11-20T19:19:21.587Z,75.85
2022-11-20T19:22:24.473Z,75.96
2022-11-20T19:25:27.691Z,76.00
2022-11-20T19:28:34.747Z,76.11
2022-11-20T19:31:37.853Z,76.23
2022-11-20T19:34:40.586Z,75.72
2022-11-20T19:37:43.726Z,75.94
2022-11-20T19:40:46.302Z,76.10
2022-11-20T19:43:50.042Z,76.32
2022-11-20T19:46:52.727Z,76.50
2022-11-20T19:49:55.870Z,76.75
2022-11-20T19:52:58.843Z,76.93
2022-11-20T19:56:02.324Z,76.96
2022-11-20T19:59:04.925Z,77.01
2022-11-20T20:02:11.450Z,77.20
2022-11-20T20:05:14.375Z,77.27
2022-11-20T20:08:17.321Z,77.37
2022-11-20T20:11:21.420Z,77.49
2022-11-20T20:14:24.305Z,77.64
2022-11-20T20:17:27.130Z,77.72
2022-11-20T20:20:30.045Z,77.90
2022-11-20T20:23:33.157Z,78.01
2022-11-20T20:26:36.146Z,78.32
2022-11-20T20:29:39.094Z,78.20
2022-11-20T20:32:41.941Z,78.01
2022-11-20T20:35:45.339Z,77.89
2022-11-20T20:38:48.411Z,77.84
2022-11-20T20:41:51.247Z,77.73
2022-11-20T20:45:11.151Z,77.82
2022-11-20T20:48:18.080Z,77.95
2022-11-20T20:51:21.257Z,77.72
2022-11-20T20:54:24.338Z,77.46
2022-11-20T20:57:28.659Z,77.45
2022-11-20T21:00:31.562Z,77.33
2022-11-20T21:03:36.543Z,77.08
2022-11-20T21:06:39.380Z,76.85
2022-11-20T21:09:42.199Z,76.51
2022-11-20T21:12:44.999Z,76.43
2022-11-20T21:15:50.198Z,76.31
2022-11-20T21:18:53.011Z,76.11
2022-11-20T21:21:58.824Z,76.02
2022-11-20T21:25:01.676Z,76.03
2022-11-20T21:28:04.460Z,76.05
2022-11-20T21:31:10.410Z,76.06
2022-11-20T21:34:14.379Z,76.14
2022-11-20T21:37:17.173Z,76.27
2022-11-20T21:40:20.616Z,76.27
2022-11-20T21:43:23.397Z,76.30
2022-11-20T21:46:26.486Z,76.12
2022-11-20T21:49:29.389Z,76.53
2022-11-20T21:52:32.207Z,76.72
2022-11-20T21:55:35.317Z,76.59
2022-11-20T21:58:40.227Z,76.66
2022-11-20T22:01:43.201Z,76.62
2022-11-20T22:04:46.290Z,76.72
2022-11-20T22:07:48.749Z,76.70
2022-11-20T22:10:55.932Z,76.88
2022-11-20T22:14:18.016Z,76.95
2022-11-20T22:17:41.299Z,76.94
2022-11-20T22:20:43.867Z,77.01
2022-11-20T22:23:47.167Z,76.95
2022-11-20T22:26:50.089Z,77.13
2022-11-20T22:29:53.063Z,77.34
2022-11-20T22:32:56.446Z,77.48
2022-11-20T22:36:04.535Z,77.31
2022-11-20T22:39:07.370Z,77.24
2022-11-20T22:42:10.649Z,77.49
2022-11-20T22:45:14.093Z,77.53
2022-11-20T22:48:17.182Z,77.43
2022-11-20T22:51:22.605Z,77.30
2022-11-20T22:54:25.981Z,77.53
2022-11-20T22:57:29.028Z,77.29
2022-11-20T23:00:32.460Z,77.43
2022-11-20T23:03:35.195Z,77.20
2022-11-20T23:06:38.887Z,77.44
2022-11-20T23:09:41.336Z,77.25
2022-11-20T23:12:44.426Z,77.32
2022-11-20T23:15:46.879Z,77.67
2022-11-20T23:18:58.331Z,77.90
2022-11-20T23:22:00.783Z,77.86
2022-11-20T23:25:04.094Z,78.03
2022-11-20T23:28:06.611Z,77.95
2022-11-20T23:31:10.878Z,78.08
2022-11-20T23:34:13.372Z,78.07
2022-11-20T23:37:16.421Z,78.24
2022-11-20T23:40:18.974Z,78.44
2022-11-20T23:43:22.741Z,78.47
2022-11-20T23:46:25.734Z,78.44
2022-11-20T23:49:28.748Z,78.45
2022-11-20T23:52:31.272Z,78.06
2022-11-20T23:55:34.748Z,78.56
2022-11-20T23:58:38.617Z,78.47
